sensor_id;sensor_type;location;lat;lon;timestamp;temperature;humidity
9095;DHT22;4583;49.796;9.902;2023-06-04T00:09:56;17.40;42.00
9095;DHT22;4583;49.796;9.902;2023-06-04T00:19:57;17.30;42.20
9095;DHT22;4583;49.796;9.902;2023-06-04T00:29:59;17.20;42.40
9095;DHT22;4583;49.796;9.902;2023-06-04T00:40:01;17.10;42.40
9095;DHT22;4583;49.796;9.902;2023-06-04T00:50:03;17.00;42.60
9095;DHT22;4583;49.796;9.902;2023-06-04T01:00:06;16.80;43.00
9095;DHT22;4583;49.796;9.902;2023-06-04T01:10:09;16.60;43.80
9095;DHT22;4583;49.796;9.902;2023-06-04T01:30:41;16.30;46.50
9095;DHT22;4583;49.796;9.902;2023-06-04T01:40:47;16.10;47.30
9095;DHT22;4583;49.796;9.902;2023-06-04T01:50:49;15.90;47.60
9095;DHT22;4583;49.796;9.902;2023-06-04T02:00:51;15.70;48.40
9095;DHT22;4583;49.796;9.902;2023-06-04T02:10:54;15.50;48.80
9095;DHT22;4583;49.796;9.902;2023-06-04T02:20:57;15.30;49.00
9095;DHT22;4583;49.796;9.902;2023-06-04T02:30:59;15.10;49.10
9095;DHT22;4583;49.796;9.902;2023-06-04T02:41:01;14.80;49.30
9095;DHT22;4583;49.796;9.902;2023-06-04T02:51:02;14.60;49.70
9095;DHT22;4583;49.796;9.902;2023-06-04T03:01:04;14.40;50.00
9095;DHT22;4583;49.796;9.902;2023-06-04T03:11:06;14.40;50.40
9095;DHT22;4583;49.796;9.902;2023-06-04T03:21:09;14.20;50.70
9095;DHT22;4583;49.796;9.902;2023-06-04T03:31:12;14.10;50.90
9095;DHT22;4583;49.796;9.902;2023-06-04T03:41:14;14.00;51.00
9095;DHT22;4583;49.796;9.902;2023-06-04T03:51:17;13.90;51.10
9095;DHT22;4583;49.796;9.902;2023-06-04T04:01:18;13.80;51.10
9095;DHT22;4583;49.796;9.902;2023-06-04T04:11:20;13.80;51.60
9095;DHT22;4583;49.796;9.902;2023-06-04T04:21:22;13.90;51.90
9095;DHT22;4583;49.796;9.902;2023-06-04T04:31:25;14.00;52.10
9095;DHT22;4583;49.796;9.902;2023-06-04T04:41:27;14.10;51.90
9095;DHT22;4583;49.796;9.902;2023-06-04T04:51:29;14.30;52.10
9095;DHT22;4583;49.796;9.902;2023-06-04T05:01:30;14.50;52.20
9095;DHT22;4583;49.796;9.902;2023-06-04T05:11:32;14.70;52.40
9095;DHT22;4583;49.796;9.902;2023-06-04T05:21:34;14.90;51.90
9095;DHT22;4583;49.796;9.902;2023-06-04T05:31:38;15.20;51.20
9095;DHT22;4583;49.796;9.902;2023-06-04T05:41:42;15.50;50.30
9095;DHT22;4583;49.796;9.902;2023-06-04T05:51:43;15.70;49.60
9095;DHT22;4583;49.796;9.902;2023-06-04T06:01:45;16.10;49.00
9095;DHT22;4583;49.796;9.902;2023-06-04T06:11:49;16.50;48.20
9095;DHT22;4583;49.796;9.902;2023-06-04T06:21:51;16.80;47.30
9095;DHT22;4583;49.796;9.902;2023-06-04T06:31:52;17.20;46.60
9095;DHT22;4583;49.796;9.902;2023-06-04T06:41:54;17.60;46.00
9095;DHT22;4583;49.796;9.902;2023-06-04T06:51:56;18.10;45.10
9095;DHT22;4583;49.796;9.902;2023-06-04T07:01:58;18.50;45.30
9095;DHT22;4583;49.796;9.902;2023-06-04T07:12:00;18.80;45.60
9095;DHT22;4583;49.796;9.902;2023-06-04T07:22:02;19.20;45.30
9095;DHT22;4583;49.796;9.902;2023-06-04T07:32:04;19.60;44.30
9095;DHT22;4583;49.796;9.902;2023-06-04T07:42:06;19.70;45.10
9095;DHT22;4583;49.796;9.902;2023-06-04T07:52:08;20.00;44.60
9095;DHT22;4583;49.796;9.902;2023-06-04T08:02:11;20.30;44.00
9095;DHT22;4583;49.796;9.902;2023-06-04T08:12:13;20.30;44.20
9095;DHT22;4583;49.796;9.902;2023-06-04T08:22:15;20.60;43.80
9095;DHT22;4583;49.796;9.902;2023-06-04T08:32:17;20.80;43.20
9095;DHT22;4583;49.796;9.902;2023-06-04T08:42:22;20.80;42.70
9095;DHT22;4583;49.796;9.902;2023-06-04T08:52:28;21.10;42.00
9095;DHT22;4583;49.796;9.902;2023-06-04T09:02:30;21.30;41.50
9095;DHT22;4583;49.796;9.902;2023-06-04T09:12:33;21.50;40.50
9095;DHT22;4583;49.796;9.902;2023-06-04T09:22:37;21.70;39.90
9095;DHT22;4583;49.796;9.902;2023-06-04T09:32:39;21.90;39.30
9095;DHT22;4583;49.796;9.902;2023-06-04T09:42:42;22.20;38.90
9095;DHT22;4583;49.796;9.902;2023-06-04T09:52:44;22.30;38.60
9095;DHT22;4583;49.796;9.902;2023-06-04T10:02:46;22.40;38.10
9095;DHT22;4583;49.796;9.902;2023-06-04T10:12:53;22.50;36.80
9095;DHT22;4583;49.796;9.902;2023-06-04T10:22:56;22.70;35.90
9095;DHT22;4583;49.796;9.902;2023-06-04T10:32:59;22.90;35.40
9095;DHT22;4583;49.796;9.902;2023-06-04T10:43:08;22.90;34.60
9095;DHT22;4583;49.796;9.902;2023-06-04T10:53:10;23.00;34.00
9095;DHT22;4583;49.796;9.902;2023-06-04T11:03:12;23.20;33.40
9095;DHT22;4583;49.796;9.902;2023-06-04T11:13:14;23.30;33.00
9095;DHT22;4583;49.796;9.902;2023-06-04T11:23:16;23.30;33.10
9095;DHT22;4583;49.796;9.902;2023-06-04T11:33:19;23.40;33.10
9095;DHT22;4583;49.796;9.902;2023-06-04T11:43:23;23.60;32.80
9095;DHT22;4583;49.796;9.902;2023-06-04T11:53:24;23.90;32.60
9095;DHT22;4583;49.796;9.902;2023-06-04T12:03:37;24.20;32.20
9095;DHT22;4583;49.796;9.902;2023-06-04T12:13:39;24.50;31.60
9095;DHT22;4583;49.796;9.902;2023-06-04T12:23:41;24.70;30.80
9095;DHT22;4583;49.796;9.902;2023-06-04T12:33:43;24.90;31.10
9095;DHT22;4583;49.796;9.902;2023-06-04T12:43:44;25.10;30.70
9095;DHT22;4583;49.796;9.902;2023-06-04T12:53:47;25.10;30.20
9095;DHT22;4583;49.796;9.902;2023-06-04T13:03:49;25.10;30.40
9095;DHT22;4583;49.796;9.902;2023-06-04T13:13:51;25.20;30.30
9095;DHT22;4583;49.796;9.902;2023-06-04T13:23:53;25.20;30.00
9095;DHT22;4583;49.796;9.902;2023-06-04T13:33:54;25.30;30.00
9095;DHT22;4583;49.796;9.902;2023-06-04T13:43:56;25.40;29.80
9095;DHT22;4583;49.796;9.902;2023-06-04T13:53:58;25.60;29.70
9095;DHT22;4583;49.796;9.902;2023-06-04T14:04:00;25.80;29.60
9095;DHT22;4583;49.796;9.902;2023-06-04T14:14:02;26.10;29.30
9095;DHT22;4583;49.796;9.902;2023-06-04T14:24:04;26.50;29.40
9095;DHT22;4583;49.796;9.902;2023-06-04T14:34:06;29.80;27.50
9095;DHT22;4583;49.796;9.902;2023-06-04T14:44:10;29.10;27.60
9095;DHT22;4583;49.796;9.902;2023-06-04T14:54:12;29.50;27.60
9095;DHT22;4583;49.796;9.902;2023-06-04T15:04:14;31.00;26.90
9095;DHT22;4583;49.796;9.902;2023-06-04T15:14:16;31.30;26.30
9095;DHT22;4583;49.796;9.902;2023-06-04T15:24:17;32.60;25.60
9095;DHT22;4583;49.796;9.902;2023-06-04T15:34:19;33.80;24.60
9095;DHT22;4583;49.796;9.902;2023-06-04T15:44:21;31.70;25.00
9095;DHT22;4583;49.796;9.902;2023-06-04T15:54:24;34.30;23.40
9095;DHT22;4583;49.796;9.902;2023-06-04T16:04:45;35.30;22.90
9095;DHT22;4583;49.796;9.902;2023-06-04T16:14:47;38.80;21.70
9095;DHT22;4583;49.796;9.902;2023-06-04T16:24:48;41.60;20.50
9095;DHT22;4583;49.796;9.902;2023-06-04T16:34:50;37.80;21.10
9095;DHT22;4583;49.796;9.902;2023-06-04T16:44:52;33.40;22.70
9095;DHT22;4583;49.796;9.902;2023-06-04T16:54:53;32.90;23.30
9095;DHT22;4583;49.796;9.902;2023-06-04T17:04:56;38.20;21.20
9095;DHT22;4583;49.796;9.902;2023-06-04T17:14:58;38.50;20.90
9095;DHT22;4583;49.796;9.902;2023-06-04T17:25:00;42.70;19.60
9095;DHT22;4583;49.796;9.902;2023-06-04T17:35:02;40.90;19.80
9095;DHT22;4583;49.796;9.902;2023-06-04T17:45:04;43.30;18.80
9095;DHT22;4583;49.796;9.902;2023-06-04T17:55:11;43.40;18.70
9095;DHT22;4583;49.796;9.902;2023-06-04T18:05:12;41.10;19.10
9095;DHT22;4583;49.796;9.902;2023-06-04T18:15:14;33.60;21.80
9095;DHT22;4583;49.796;9.902;2023-06-04T18:25:16;30.10;23.60
9095;DHT22;4583;49.796;9.902;2023-06-04T18:35:18;28.20;24.90
9095;DHT22;4583;49.796;9.902;2023-06-04T18:45:19;26.80;26.10
9095;DHT22;4583;49.796;9.902;2023-06-04T18:55:21;25.80;27.60
9095;DHT22;4583;49.796;9.902;2023-06-04T19:05:23;25.00;29.00
9095;DHT22;4583;49.796;9.902;2023-06-04T19:15:25;24.30;29.80
9095;DHT22;4583;49.796;9.902;2023-06-04T19:25:26;23.80;30.40
9095;DHT22;4583;49.796;9.902;2023-06-04T19:35:28;23.30;31.20
9095;DHT22;4583;49.796;9.902;2023-06-04T19:45:30;22.90;32.00
9095;DHT22;4583;49.796;9.902;2023-06-04T19:55:31;22.50;32.70
9095;DHT22;4583;49.796;9.902;2023-06-04T20:05:33;22.20;33.40
9095;DHT22;4583;49.796;9.902;2023-06-04T20:15:35;21.90;34.00
9095;DHT22;4583;49.796;9.902;2023-06-04T20:25:36;21.60;34.60
9095;DHT22;4583;49.796;9.902;2023-06-04T20:35:38;21.40;35.10
9095;DHT22;4583;49.796;9.902;2023-06-04T20:45:40;21.10;35.50
9095;DHT22;4583;49.796;9.902;2023-06-04T20:55:41;21.00;35.90
9095;DHT22;4583;49.796;9.902;2023-06-04T21:05:44;20.80;36.10
9095;DHT22;4583;49.796;9.902;2023-06-04T21:15:46;20.70;36.40
9095;DHT22;4583;49.796;9.902;2023-06-04T21:25:48;20.60;37.10
9095;DHT22;4583;49.796;9.902;2023-06-04T21:35:50;20.40;38.00
9095;DHT22;4583;49.796;9.902;2023-06-04T21:45:52;20.20;38.70
9095;DHT22;4583;49.796;9.902;2023-06-04T21:55:54;20.10;39.10
9095;DHT22;4583;49.796;9.902;2023-06-04T22:05:55;20.00;39.40
9095;DHT22;4583;49.796;9.902;2023-06-04T22:15:57;19.80;39.60
9095;DHT22;4583;49.796;9.902;2023-06-04T22:25:59;19.70;39.70
9095;DHT22;4583;49.796;9.902;2023-06-04T22:36:01;19.50;39.70
9095;DHT22;4583;49.796;9.902;2023-06-04T22:46:03;19.40;39.70
9095;DHT22;4583;49.796;9.902;2023-06-04T22:56:05;19.20;39.80
9095;DHT22;4583;49.796;9.902;2023-06-04T23:06:08;19.10;40.20
9095;DHT22;4583;49.796;9.902;2023-06-04T23:16:10;18.80;41.20
9095;DHT22;4583;49.796;9.902;2023-06-04T23:26:12;18.70;42.50
9095;DHT22;4583;49.796;9.902;2023-06-04T23:36:14;18.60;42.90
9095;DHT22;4583;49.796;9.902;2023-06-04T23:46:15;18.40;42.50
9095;DHT22;4583;49.796;9.902;2023-06-04T23:56:17;18.20;43.80
